sensor_id;sensor_type;location;lat;lon;timestamp;P1;durP1;ratioP1;P2;durP2;ratioP2
72771;SDS011;60894;42.544;1.516;2023-06-14T00:01:19;6.28;;;1.55;;
72771;SDS011;60894;42.544;1.516;2023-06-14T00:03:47;5.10;;;1.70;;
72771;SDS011;60894;42.544;1.516;2023-06-14T00:06:14;3.97;;;1.40;;
72771;SDS011;60894;42.544;1.516;2023-06-14T00:08:41;5.50;;;1.90;;
72771;SDS011;60894;42.544;1.516;2023-06-14T00:11:09;3.25;;;1.48;;
72771;SDS011;60894;42.544;1.516;2023-06-14T00:13:36;3.45;;;1.48;;
72771;SDS011;60894;42.544;1.516;2023-06-14T00:16:03;5.65;;;1.60;;
72771;SDS011;60894;42.544;1.516;2023-06-14T00:18:30;4.82;;;1.70;;
72771;SDS011;60894;42.544;1.516;2023-06-14T00:20:57;4.73;;;1.50;;
72771;SDS011;60894;42.544;1.516;2023-06-14T00:23:25;5.70;;;1.42;;
72771;SDS011;60894;42.544;1.516;2023-06-14T00:25:52;4.35;;;1.42;;
72771;SDS011;60894;42.544;1.516;2023-06-14T00:28:20;5.18;;;1.45;;
72771;SDS011;60894;42.544;1.516;2023-06-14T00:30:47;2.70;;;1.42;;
72771;SDS011;60894;42.544;1.516;2023-06-14T00:33:14;4.23;;;1.60;;
72771;SDS011;60894;42.544;1.516;2023-06-14T00:35:41;5.00;;;1.50;;
72771;SDS011;60894;42.544;1.516;2023-06-14T00:38:08;3.85;;;1.58;;
72771;SDS011;60894;42.544;1.516;2023-06-14T00:40:35;4.88;;;1.50;;
72771;SDS011;60894;42.544;1.516;2023-06-14T00:43:02;4.22;;;1.42;;
72771;SDS011;60894;42.544;1.516;2023-06-14T00:45:30;3.10;;;1.40;;
72771;SDS011;60894;42.544;1.516;2023-06-14T00:48:01;3.78;;;1.70;;
72771;SDS011;60894;42.544;1.516;2023-06-14T00:50:28;5.00;;;1.58;;
72771;SDS011;60894;42.544;1.516;2023-06-14T00:52:57;4.38;;;1.50;;
72771;SDS011;60894;42.544;1.516;2023-06-14T00:55:24;3.33;;;1.50;;
72771;SDS011;60894;42.544;1.516;2023-06-14T00:57:51;4.50;;;1.47;;
72771;SDS011;60894;42.544;1.516;2023-06-14T01:00:18;4.43;;;1.70;;
72771;SDS011;60894;42.544;1.516;2023-06-14T01:02:47;3.83;;;1.50;;
72771;SDS011;60894;42.544;1.516;2023-06-14T01:05:14;4.10;;;1.48;;
72771;SDS011;60894;42.544;1.516;2023-06-14T01:07:46;3.25;;;1.40;;
72771;SDS011;60894;42.544;1.516;2023-06-14T01:10:29;5.00;;;1.60;;
72771;SDS011;60894;42.544;1.516;2023-06-14T01:13:04;4.57;;;1.55;;
72771;SDS011;60894;42.544;1.516;2023-06-14T01:15:35;3.95;;;1.50;;
72771;SDS011;60894;42.544;1.516;2023-06-14T01:18:05;3.50;;;1.15;;
72771;SDS011;60894;42.544;1.516;2023-06-14T01:20:32;4.60;;;1.50;;
72771;SDS011;60894;42.544;1.516;2023-06-14T01:23:04;3.23;;;1.40;;
72771;SDS011;60894;42.544;1.516;2023-06-14T01:25:31;5.68;;;1.58;;
72771;SDS011;60894;42.544;1.516;2023-06-14T01:27:58;4.43;;;1.45;;
72771;SDS011;60894;42.544;1.516;2023-06-14T01:30:28;5.35;;;1.60;;
72771;SDS011;60894;42.544;1.516;2023-06-14T01:32:58;3.97;;;1.30;;
72771;SDS011;60894;42.544;1.516;2023-06-14T01:35:26;4.93;;;1.47;;
72771;SDS011;60894;42.544;1.516;2023-06-14T01:37:52;3.38;;;1.38;;
72771;SDS011;60894;42.544;1.516;2023-06-14T01:40:21;5.50;;;1.70;;
72771;SDS011;60894;42.544;1.516;2023-06-14T01:42:50;3.10;;;1.15;;
72771;SDS011;60894;42.544;1.516;2023-06-14T01:45:18;4.07;;;1.35;;
72771;SDS011;60894;42.544;1.516;2023-06-14T01:47:46;3.17;;;1.20;;
72771;SDS011;60894;42.544;1.516;2023-06-14T01:50:13;4.75;;;1.50;;
72771;SDS011;60894;42.544;1.516;2023-06-14T01:52:40;3.60;;;1.40;;
72771;SDS011;60894;42.544;1.516;2023-06-14T01:55:08;2.78;;;1.40;;
72771;SDS011;60894;42.544;1.516;2023-06-14T01:57:36;4.15;;;1.40;;
72771;SDS011;60894;42.544;1.516;2023-06-14T02:00:04;5.37;;;1.70;;
72771;SDS011;60894;42.544;1.516;2023-06-14T02:02:35;3.83;;;1.50;;
72771;SDS011;60894;42.544;1.516;2023-06-14T02:05:02;2.38;;;1.20;;
72771;SDS011;60894;42.544;1.516;2023-06-14T02:07:30;4.03;;;1.60;;
72771;SDS011;60894;42.544;1.516;2023-06-14T02:09:57;4.32;;;1.67;;
72771;SDS011;60894;42.544;1.516;2023-06-14T02:12:24;4.70;;;1.67;;
72771;SDS011;60894;42.544;1.516;2023-06-14T02:14:52;5.00;;;1.75;;
72771;SDS011;60894;42.544;1.516;2023-06-14T02:17:19;5.72;;;1.50;;
72771;SDS011;60894;42.544;1.516;2023-06-14T02:19:46;2.55;;;1.40;;
72771;SDS011;60894;42.544;1.516;2023-06-14T02:22:13;4.25;;;1.50;;
72771;SDS011;60894;42.544;1.516;2023-06-14T02:24:40;3.67;;;1.20;;
72771;SDS011;60894;42.544;1.516;2023-06-14T02:27:07;3.10;;;1.30;;
72771;SDS011;60894;42.544;1.516;2023-06-14T02:29:35;3.42;;;1.20;;
72771;SDS011;60894;42.544;1.516;2023-06-14T02:32:04;3.05;;;1.20;;
72771;SDS011;60894;42.544;1.516;2023-06-14T02:34:32;3.00;;;1.30;;
72771;SDS011;60894;42.544;1.516;2023-06-14T02:36:59;4.97;;;1.20;;
72771;SDS011;60894;42.544;1.516;2023-06-14T02:39:28;4.35;;;1.50;;
72771;SDS011;60894;42.544;1.516;2023-06-14T02:41:55;4.45;;;1.38;;
72771;SDS011;60894;42.544;1.516;2023-06-14T02:44:24;2.88;;;1.20;;
72771;SDS011;60894;42.544;1.516;2023-06-14T02:46:52;3.13;;;1.30;;
72771;SDS011;60894;42.544;1.516;2023-06-14T02:49:20;4.37;;;1.53;;
72771;SDS011;60894;42.544;1.516;2023-06-14T02:51:47;3.65;;;1.67;;
72771;SDS011;60894;42.544;1.516;2023-06-14T02:54:14;4.07;;;1.35;;
72771;SDS011;60894;42.544;1.516;2023-06-14T02:56:41;3.58;;;1.50;;
72771;SDS011;60894;42.544;1.516;2023-06-14T02:59:08;3.13;;;1.10;;
72771;SDS011;60894;42.544;1.516;2023-06-14T03:01:36;3.80;;;1.23;;
72771;SDS011;60894;42.544;1.516;2023-06-14T03:04:06;3.92;;;1.40;;
72771;SDS011;60894;42.544;1.516;2023-06-14T03:06:34;2.97;;;1.10;;
72771;SDS011;60894;42.544;1.516;2023-06-14T03:09:02;3.22;;;1.05;;
72771;SDS011;60894;42.544;1.516;2023-06-14T03:11:30;3.15;;;1.25;;
72771;SDS011;60894;42.544;1.516;2023-06-14T03:13:58;3.13;;;1.00;;
72771;SDS011;60894;42.544;1.516;2023-06-14T03:16:25;2.67;;;1.00;;
72771;SDS011;60894;42.544;1.516;2023-06-14T03:18:54;4.75;;;1.20;;
72771;SDS011;60894;42.544;1.516;2023-06-14T03:21:21;2.03;;;1.00;;
72771;SDS011;60894;42.544;1.516;2023-06-14T03:23:49;2.55;;;1.00;;
72771;SDS011;60894;42.544;1.516;2023-06-14T03:26:16;1.73;;;0.90;;
72771;SDS011;60894;42.544;1.516;2023-06-14T03:28:44;3.05;;;1.10;;
72771;SDS011;60894;42.544;1.516;2023-06-14T03:31:11;2.83;;;1.08;;
72771;SDS011;60894;42.544;1.516;2023-06-14T03:33:38;2.75;;;0.90;;
72771;SDS011;60894;42.544;1.516;2023-06-14T03:36:05;1.50;;;0.80;;
72771;SDS011;60894;42.544;1.516;2023-06-14T03:38:33;1.90;;;0.90;;
72771;SDS011;60894;42.544;1.516;2023-06-14T03:41:01;2.88;;;1.00;;
72771;SDS011;60894;42.544;1.516;2023-06-14T03:43:28;1.65;;;0.85;;
72771;SDS011;60894;42.544;1.516;2023-06-14T03:45:56;3.97;;;0.95;;
72771;SDS011;60894;42.544;1.516;2023-06-14T03:48:23;3.65;;;1.10;;
72771;SDS011;60894;42.544;1.516;2023-06-14T03:50:50;3.07;;;1.20;;
72771;SDS011;60894;42.544;1.516;2023-06-14T03:53:18;2.28;;;1.00;;
72771;SDS011;60894;42.544;1.516;2023-06-14T03:55:46;3.15;;;1.10;;
72771;SDS011;60894;42.544;1.516;2023-06-14T03:58:15;3.47;;;1.10;;
72771;SDS011;60894;42.544;1.516;2023-06-14T04:00:42;2.88;;;1.10;;
72771;SDS011;60894;42.544;1.516;2023-06-14T04:03:10;1.70;;;0.90;;
72771;SDS011;60894;42.544;1.516;2023-06-14T04:05:38;2.67;;;0.90;;
72771;SDS011;60894;42.544;1.516;2023-06-14T04:08:07;2.05;;;0.80;;
72771;SDS011;60894;42.544;1.516;2023-06-14T04:10:34;2.30;;;0.80;;
72771;SDS011;60894;42.544;1.516;2023-06-14T04:13:01;1.92;;;0.80;;
72771;SDS011;60894;42.544;1.516;2023-06-14T04:15:29;2.03;;;0.83;;
72771;SDS011;60894;42.544;1.516;2023-06-14T04:17:56;2.55;;;0.98;;
72771;SDS011;60894;42.544;1.516;2023-06-14T04:20:23;1.90;;;0.70;;
72771;SDS011;60894;42.544;1.516;2023-06-14T04:22:50;2.65;;;0.90;;
72771;SDS011;60894;42.544;1.516;2023-06-14T04:25:17;1.42;;;0.73;;
72771;SDS011;60894;42.544;1.516;2023-06-14T04:27:44;1.50;;;0.70;;
72771;SDS011;60894;42.544;1.516;2023-06-14T04:30:12;2.25;;;0.80;;
72771;SDS011;60894;42.544;1.516;2023-06-14T04:32:40;3.03;;;0.80;;
72771;SDS011;60894;42.544;1.516;2023-06-14T04:35:09;2.60;;;0.80;;
72771;SDS011;60894;42.544;1.516;2023-06-14T04:37:36;1.67;;;0.80;;
72771;SDS011;60894;42.544;1.516;2023-06-14T04:40:09;2.30;;;0.90;;
72771;SDS011;60894;42.544;1.516;2023-06-14T04:42:36;3.33;;;1.00;;
72771;SDS011;60894;42.544;1.516;2023-06-14T04:45:06;1.83;;;0.80;;
72771;SDS011;60894;42.544;1.516;2023-06-14T04:47:34;2.28;;;1.00;;
72771;SDS011;60894;42.544;1.516;2023-06-14T04:50:04;2.83;;;0.85;;
72771;SDS011;60894;42.544;1.516;2023-06-14T04:52:31;4.10;;;0.97;;
72771;SDS011;60894;42.544;1.516;2023-06-14T04:55:00;1.70;;;0.75;;
72771;SDS011;60894;42.544;1.516;2023-06-14T04:57:28;2.58;;;1.00;;
72771;SDS011;60894;42.544;1.516;2023-06-14T04:59:55;3.05;;;1.02;;
72771;SDS011;60894;42.544;1.516;2023-06-14T05:02:23;4.18;;;1.00;;
72771;SDS011;60894;42.544;1.516;2023-06-14T05:04:50;2.60;;;1.20;;
72771;SDS011;60894;42.544;1.516;2023-06-14T05:07:19;3.05;;;1.10;;
72771;SDS011;60894;42.544;1.516;2023-06-14T05:09:49;3.35;;;1.00;;
72771;SDS011;60894;42.544;1.516;2023-06-14T05:12:16;4.35;;;0.93;;
72771;SDS011;60894;42.544;1.516;2023-06-14T05:14:44;2.25;;;1.00;;
72771;SDS011;60894;42.544;1.516;2023-06-14T05:17:11;2.70;;;0.80;;
72771;SDS011;60894;42.544;1.516;2023-06-14T05:19:38;2.33;;;1.10;;
72771;SDS011;60894;42.544;1.516;2023-06-14T05:22:05;1.45;;;0.80;;
72771;SDS011;60894;42.544;1.516;2023-06-14T05:24:33;3.30;;;1.42;;
72771;SDS011;60894;42.544;1.516;2023-06-14T05:27:00;2.17;;;0.90;;
72771;SDS011;60894;42.544;1.516;2023-06-14T05:29:27;3.20;;;1.00;;
72771;SDS011;60894;42.544;1.516;2023-06-14T05:31:54;3.72;;;0.90;;
72771;SDS011;60894;42.544;1.516;2023-06-14T05:34:21;5.80;;;1.90;;
72771;SDS011;60894;42.544;1.516;2023-06-14T05:36:48;3.53;;;1.40;;
72771;SDS011;60894;42.544;1.516;2023-06-14T05:39:15;4.28;;;1.40;;
72771;SDS011;60894;42.544;1.516;2023-06-14T05:41:43;2.07;;;1.00;;
72771;SDS011;60894;42.544;1.516;2023-06-14T05:44:10;2.70;;;1.20;;
72771;SDS011;60894;42.544;1.516;2023-06-14T05:46:37;4.90;;;1.30;;
72771;SDS011;60894;42.544;1.516;2023-06-14T05:49:05;5.30;;;1.58;;
72771;SDS011;60894;42.544;1.516;2023-06-14T05:51:32;3.20;;;1.25;;
72771;SDS011;60894;42.544;1.516;2023-06-14T05:53:59;1.90;;;0.90;;
72771;SDS011;60894;42.544;1.516;2023-06-14T05:56:26;3.47;;;1.20;;
72771;SDS011;60894;42.544;1.516;2023-06-14T05:58:54;1.50;;;0.80;;
72771;SDS011;60894;42.544;1.516;2023-06-14T06:01:21;3.10;;;0.95;;
72771;SDS011;60894;42.544;1.516;2023-06-14T06:03:48;2.67;;;0.80;;
72771;SDS011;60894;42.544;1.516;2023-06-14T06:06:15;1.70;;;0.60;;
72771;SDS011;60894;42.544;1.516;2023-06-14T06:08:42;2.30;;;0.68;;
72771;SDS011;60894;42.544;1.516;2023-06-14T06:11:09;3.75;;;0.90;;
72771;SDS011;60894;42.544;1.516;2023-06-14T06:13:36;5.18;;;1.20;;
72771;SDS011;60894;42.544;1.516;2023-06-14T06:16:05;3.95;;;1.20;;
72771;SDS011;60894;42.544;1.516;2023-06-14T06:18:32;3.70;;;1.10;;
72771;SDS011;60894;42.544;1.516;2023-06-14T06:20:59;1.77;;;0.80;;
72771;SDS011;60894;42.544;1.516;2023-06-14T06:23:28;1.80;;;0.80;;
72771;SDS011;60894;42.544;1.516;2023-06-14T06:25:55;5.05;;;1.13;;
72771;SDS011;60894;42.544;1.516;2023-06-14T06:28:22;4.72;;;1.27;;
72771;SDS011;60894;42.544;1.516;2023-06-14T06:30:49;4.93;;;1.50;;
72771;SDS011;60894;42.544;1.516;2023-06-14T06:33:18;1.55;;;0.90;;
72771;SDS011;60894;42.544;1.516;2023-06-14T06:35:45;6.22;;;1.75;;
72771;SDS011;60894;42.544;1.516;2023-06-14T06:38:12;4.38;;;1.83;;
72771;SDS011;60894;42.544;1.516;2023-06-14T06:40:39;8.13;;;1.20;;
72771;SDS011;60894;42.544;1.516;2023-06-14T06:43:06;3.10;;;0.90;;
72771;SDS011;60894;42.544;1.516;2023-06-14T06:45:32;4.35;;;0.93;;
72771;SDS011;60894;42.544;1.516;2023-06-14T06:47:59;1.88;;;0.75;;
72771;SDS011;60894;42.544;1.516;2023-06-14T06:50:28;4.38;;;1.40;;
72771;SDS011;60894;42.544;1.516;2023-06-14T06:52:55;3.55;;;1.10;;
72771;SDS011;60894;42.544;1.516;2023-06-14T06:55:22;3.00;;;0.90;;
72771;SDS011;60894;42.544;1.516;2023-06-14T06:57:49;4.97;;;1.48;;
72771;SDS011;60894;42.544;1.516;2023-06-14T07:00:17;3.67;;;1.70;;
72771;SDS011;60894;42.544;1.516;2023-06-14T07:02:45;2.05;;;1.00;;
72771;SDS011;60894;42.544;1.516;2023-06-14T07:05:12;3.83;;;1.17;;
72771;SDS011;60894;42.544;1.516;2023-06-14T07:07:41;2.17;;;0.70;;
72771;SDS011;60894;42.544;1.516;2023-06-14T07:10:07;2.75;;;1.10;;
72771;SDS011;60894;42.544;1.516;2023-06-14T07:12:35;6.40;;;1.42;;
72771;SDS011;60894;42.544;1.516;2023-06-14T07:15:05;6.18;;;1.70;;
72771;SDS011;60894;42.544;1.516;2023-06-14T07:17:33;4.65;;;1.73;;
72771;SDS011;60894;42.544;1.516;2023-06-14T07:20:01;4.80;;;1.40;;
72771;SDS011;60894;42.544;1.516;2023-06-14T07:22:37;6.63;;;1.10;;
72771;SDS011;60894;42.544;1.516;2023-06-14T07:25:08;5.43;;;1.30;;
72771;SDS011;60894;42.544;1.516;2023-06-14T07:27:37;5.82;;;1.30;;
72771;SDS011;60894;42.544;1.516;2023-06-14T07:30:05;9.80;;;2.63;;
72771;SDS011;60894;42.544;1.516;2023-06-14T07:32:33;4.80;;;2.00;;
72771;SDS011;60894;42.544;1.516;2023-06-14T07:35:00;4.22;;;1.55;;
72771;SDS011;60894;42.544;1.516;2023-06-14T07:37:28;4.00;;;1.23;;
72771;SDS011;60894;42.544;1.516;2023-06-14T07:39:55;3.08;;;1.08;;
72771;SDS011;60894;42.544;1.516;2023-06-14T07:42:24;4.57;;;1.63;;
72771;SDS011;60894;42.544;1.516;2023-06-14T07:44:51;4.90;;;2.10;;
72771;SDS011;60894;42.544;1.516;2023-06-14T07:47:19;5.25;;;3.40;;
72771;SDS011;60894;42.544;1.516;2023-06-14T07:49:45;5.00;;;1.90;;
72771;SDS011;60894;42.544;1.516;2023-06-14T07:52:12;7.40;;;3.20;;
72771;SDS011;60894;42.544;1.516;2023-06-14T07:54:39;9.07;;;2.05;;
72771;SDS011;60894;42.544;1.516;2023-06-14T07:57:06;5.97;;;2.07;;
72771;SDS011;60894;42.544;1.516;2023-06-14T07:59:35;4.55;;;1.58;;
72771;SDS011;60894;42.544;1.516;2023-06-14T08:02:02;5.28;;;1.75;;
72771;SDS011;60894;42.544;1.516;2023-06-14T08:04:29;6.68;;;2.10;;
72771;SDS011;60894;42.544;1.516;2023-06-14T08:06:56;6.97;;;2.50;;
72771;SDS011;60894;42.544;1.516;2023-06-14T08:09:23;4.37;;;1.70;;
72771;SDS011;60894;42.544;1.516;2023-06-14T08:11:50;7.13;;;2.03;;
72771;SDS011;60894;42.544;1.516;2023-06-14T08:14:17;5.85;;;2.20;;
72771;SDS011;60894;42.544;1.516;2023-06-14T08:16:46;5.88;;;2.30;;
72771;SDS011;60894;42.544;1.516;2023-06-14T08:19:13;8.23;;;2.47;;
72771;SDS011;60894;42.544;1.516;2023-06-14T08:21:41;7.67;;;2.70;;
72771;SDS011;60894;42.544;1.516;2023-06-14T08:24:10;8.10;;;2.20;;
72771;SDS011;60894;42.544;1.516;2023-06-14T08:26:38;6.57;;;2.33;;
72771;SDS011;60894;42.544;1.516;2023-06-14T08:29:05;7.85;;;2.42;;
72771;SDS011;60894;42.544;1.516;2023-06-14T08:31:33;5.82;;;2.33;;
72771;SDS011;60894;42.544;1.516;2023-06-14T08:34:01;6.93;;;2.50;;
72771;SDS011;60894;42.544;1.516;2023-06-14T08:36:28;6.43;;;2.08;;
72771;SDS011;60894;42.544;1.516;2023-06-14T08:38:55;6.68;;;2.60;;
72771;SDS011;60894;42.544;1.516;2023-06-14T08:41:22;6.03;;;2.35;;
72771;SDS011;60894;42.544;1.516;2023-06-14T08:43:50;7.57;;;3.30;;
72771;SDS011;60894;42.544;1.516;2023-06-14T08:46:17;8.63;;;3.60;;
72771;SDS011;60894;42.544;1.516;2023-06-14T08:48:45;8.73;;;3.25;;
72771;SDS011;60894;42.544;1.516;2023-06-14T08:51:14;9.05;;;3.88;;
72771;SDS011;60894;42.544;1.516;2023-06-14T08:53:48;10.63;;;3.83;;
72771;SDS011;60894;42.544;1.516;2023-06-14T08:56:19;8.32;;;3.35;;
72771;SDS011;60894;42.544;1.516;2023-06-14T08:58:47;8.67;;;3.30;;
72771;SDS011;60894;42.544;1.516;2023-06-14T09:01:15;7.47;;;3.22;;
72771;SDS011;60894;42.544;1.516;2023-06-14T09:03:42;7.50;;;2.83;;
72771;SDS011;60894;42.544;1.516;2023-06-14T09:06:10;8.73;;;3.67;;
72771;SDS011;60894;42.544;1.516;2023-06-14T09:08:40;8.82;;;3.80;;
72771;SDS011;60894;42.544;1.516;2023-06-14T09:11:10;9.70;;;4.40;;
72771;SDS011;60894;42.544;1.516;2023-06-14T09:13:38;9.45;;;3.95;;
72771;SDS011;60894;42.544;1.516;2023-06-14T09:16:05;9.00;;;3.75;;
72771;SDS011;60894;42.544;1.516;2023-06-14T09:18:35;9.57;;;3.72;;
72771;SDS011;60894;42.544;1.516;2023-06-14T09:21:03;10.48;;;4.03;;
72771;SDS011;60894;42.544;1.516;2023-06-14T09:23:33;10.43;;;4.50;;
72771;SDS011;60894;42.544;1.516;2023-06-14T09:26:07;9.85;;;4.20;;
72771;SDS011;60894;42.544;1.516;2023-06-14T09:28:35;8.25;;;4.30;;
72771;SDS011;60894;42.544;1.516;2023-06-14T09:31:02;8.20;;;3.95;;
72771;SDS011;60894;42.544;1.516;2023-06-14T09:33:30;8.95;;;3.90;;
72771;SDS011;60894;42.544;1.516;2023-06-14T09:35:58;12.13;;;4.77;;
72771;SDS011;60894;42.544;1.516;2023-06-14T09:38:25;10.45;;;4.72;;
72771;SDS011;60894;42.544;1.516;2023-06-14T09:40:52;11.23;;;4.90;;
72771;SDS011;60894;42.544;1.516;2023-06-14T09:43:24;13.23;;;4.53;;
72771;SDS011;60894;42.544;1.516;2023-06-14T09:45:52;9.88;;;4.20;;
72771;SDS011;60894;42.544;1.516;2023-06-14T09:48:20;11.97;;;4.37;;
72771;SDS011;60894;42.544;1.516;2023-06-14T09:50:47;9.63;;;3.95;;
72771;SDS011;60894;42.544;1.516;2023-06-14T09:53:17;8.23;;;4.20;;
72771;SDS011;60894;42.544;1.516;2023-06-14T09:55:48;8.70;;;4.47;;
72771;SDS011;60894;42.544;1.516;2023-06-14T09:58:16;9.57;;;4.65;;
72771;SDS011;60894;42.544;1.516;2023-06-14T10:00:46;8.63;;;4.27;;
72771;SDS011;60894;42.544;1.516;2023-06-14T10:03:21;11.40;;;4.85;;
72771;SDS011;60894;42.544;1.516;2023-06-14T10:05:51;10.82;;;4.78;;
72771;SDS011;60894;42.544;1.516;2023-06-14T10:08:19;11.63;;;5.22;;
72771;SDS011;60894;42.544;1.516;2023-06-14T10:10:51;10.82;;;5.30;;
72771;SDS011;60894;42.544;1.516;2023-06-14T10:13:18;11.07;;;6.23;;
72771;SDS011;60894;42.544;1.516;2023-06-14T10:15:51;11.57;;;6.45;;
72771;SDS011;60894;42.544;1.516;2023-06-14T10:18:26;11.38;;;6.00;;
72771;SDS011;60894;42.544;1.516;2023-06-14T10:21:02;14.02;;;6.70;;
72771;SDS011;60894;42.544;1.516;2023-06-14T10:23:35;12.68;;;6.28;;
72771;SDS011;60894;42.544;1.516;2023-06-14T10:26:06;11.03;;;5.50;;
72771;SDS011;60894;42.544;1.516;2023-06-14T10:28:33;10.93;;;5.57;;
72771;SDS011;60894;42.544;1.516;2023-06-14T10:31:05;13.10;;;6.13;;
72771;SDS011;60894;42.544;1.516;2023-06-14T10:33:33;12.48;;;5.70;;
72771;SDS011;60894;42.544;1.516;2023-06-14T10:36:11;10.85;;;5.78;;
72771;SDS011;60894;42.544;1.516;2023-06-14T10:38:59;10.67;;;5.60;;
72771;SDS011;60894;42.544;1.516;2023-06-14T10:41:29;13.63;;;6.20;;
72771;SDS011;60894;42.544;1.516;2023-06-14T10:44:10;22.25;;;10.45;;
72771;SDS011;60894;42.544;1.516;2023-06-14T10:46:53;17.65;;;9.65;;
72771;SDS011;60894;42.544;1.516;2023-06-14T10:49:36;42.63;;;23.45;;
72771;SDS011;60894;42.544;1.516;2023-06-14T10:52:10;41.07;;;19.77;;
72771;SDS011;60894;42.544;1.516;2023-06-14T10:57:31;12.30;;;6.75;;
72771;SDS011;60894;42.544;1.516;2023-06-14T10:59:59;11.30;;;5.70;;
72771;SDS011;60894;42.544;1.516;2023-06-14T11:02:48;11.80;;;6.47;;
72771;SDS011;60894;42.544;1.516;2023-06-14T11:05:23;13.27;;;7.10;;
72771;SDS011;60894;42.544;1.516;2023-06-14T11:07:55;12.50;;;6.68;;
72771;SDS011;60894;42.544;1.516;2023-06-14T11:10:41;10.75;;;6.15;;
72771;SDS011;60894;42.544;1.516;2023-06-14T11:13:10;12.02;;;6.90;;
72771;SDS011;60894;42.544;1.516;2023-06-14T11:15:38;11.32;;;6.35;;
72771;SDS011;60894;42.544;1.516;2023-06-14T11:18:11;12.70;;;7.10;;
72771;SDS011;60894;42.544;1.516;2023-06-14T11:20:39;11.88;;;6.88;;
72771;SDS011;60894;42.544;1.516;2023-06-14T11:23:07;12.20;;;5.97;;
72771;SDS011;60894;42.544;1.516;2023-06-14T11:25:34;11.45;;;5.75;;
72771;SDS011;60894;42.544;1.516;2023-06-14T11:28:01;10.90;;;6.45;;
72771;SDS011;60894;42.544;1.516;2023-06-14T11:30:28;11.33;;;6.50;;
72771;SDS011;60894;42.544;1.516;2023-06-14T11:32:55;12.35;;;6.03;;
72771;SDS011;60894;42.544;1.516;2023-06-14T11:35:23;11.90;;;6.40;;
72771;SDS011;60894;42.544;1.516;2023-06-14T11:37:52;14.10;;;6.90;;
72771;SDS011;60894;42.544;1.516;2023-06-14T11:40:22;11.30;;;6.03;;
72771;SDS011;60894;42.544;1.516;2023-06-14T11:42:50;11.17;;;6.33;;
72771;SDS011;60894;42.544;1.516;2023-06-14T11:45:24;13.27;;;7.10;;
72771;SDS011;60894;42.544;1.516;2023-06-14T11:47:53;11.88;;;7.05;;
72771;SDS011;60894;42.544;1.516;2023-06-14T11:50:24;10.65;;;6.18;;
72771;SDS011;60894;42.544;1.516;2023-06-14T11:52:54;11.18;;;6.25;;
72771;SDS011;60894;42.544;1.516;2023-06-14T11:55:21;11.30;;;6.63;;
72771;SDS011;60894;42.544;1.516;2023-06-14T11:57:48;12.85;;;6.57;;
72771;SDS011;60894;42.544;1.516;2023-06-14T12:00:16;11.00;;;5.78;;
72771;SDS011;60894;42.544;1.516;2023-06-14T12:02:51;13.10;;;6.60;;
72771;SDS011;60894;42.544;1.516;2023-06-14T12:05:20;10.27;;;5.85;;
72771;SDS011;60894;42.544;1.516;2023-06-14T12:07:49;12.77;;;7.20;;
72771;SDS011;60894;42.544;1.516;2023-06-14T12:10:18;14.50;;;8.02;;
72771;SDS011;60894;42.544;1.516;2023-06-14T12:12:45;16.50;;;9.55;;
72771;SDS011;60894;42.544;1.516;2023-06-14T12:15:12;13.00;;;7.65;;
72771;SDS011;60894;42.544;1.516;2023-06-14T12:17:39;13.75;;;7.18;;
72771;SDS011;60894;42.544;1.516;2023-06-14T12:20:09;12.27;;;6.80;;
72771;SDS011;60894;42.544;1.516;2023-06-14T12:22:39;13.88;;;6.47;;
72771;SDS011;60894;42.544;1.516;2023-06-14T12:25:08;12.20;;;6.45;;
72771;SDS011;60894;42.544;1.516;2023-06-14T12:27:35;13.20;;;7.13;;
72771;SDS011;60894;42.544;1.516;2023-06-14T12:30:06;9.77;;;5.88;;
72771;SDS011;60894;42.544;1.516;2023-06-14T12:32:34;11.70;;;6.00;;
72771;SDS011;60894;42.544;1.516;2023-06-14T12:35:01;21.42;;;7.05;;
72771;SDS011;60894;42.544;1.516;2023-06-14T12:37:28;12.05;;;5.82;;
72771;SDS011;60894;42.544;1.516;2023-06-14T12:39:55;12.88;;;6.75;;
72771;SDS011;60894;42.544;1.516;2023-06-14T12:42:23;11.57;;;6.20;;
72771;SDS011;60894;42.544;1.516;2023-06-14T12:44:50;10.53;;;5.67;;
72771;SDS011;60894;42.544;1.516;2023-06-14T12:47:17;9.88;;;5.50;;
72771;SDS011;60894;42.544;1.516;2023-06-14T12:49:44;10.48;;;5.40;;
72771;SDS011;60894;42.544;1.516;2023-06-14T12:52:11;8.70;;;5.00;;
72771;SDS011;60894;42.544;1.516;2023-06-14T12:54:38;8.48;;;4.57;;
72771;SDS011;60894;42.544;1.516;2023-06-14T12:57:06;8.23;;;4.87;;
72771;SDS011;60894;42.544;1.516;2023-06-14T12:59:34;11.55;;;5.85;;
72771;SDS011;60894;42.544;1.516;2023-06-14T13:02:12;11.77;;;5.13;;
72771;SDS011;60894;42.544;1.516;2023-06-14T13:04:39;9.68;;;5.07;;
72771;SDS011;60894;42.544;1.516;2023-06-14T13:07:06;10.45;;;5.00;;
72771;SDS011;60894;42.544;1.516;2023-06-14T13:09:33;9.97;;;5.27;;
72771;SDS011;60894;42.544;1.516;2023-06-14T13:12:00;9.07;;;4.60;;
72771;SDS011;60894;42.544;1.516;2023-06-14T13:14:28;9.02;;;4.78;;
72771;SDS011;60894;42.544;1.516;2023-06-14T13:16:56;9.55;;;5.05;;
72771;SDS011;60894;42.544;1.516;2023-06-14T13:19:23;8.07;;;4.68;;
72771;SDS011;60894;42.544;1.516;2023-06-14T13:21:50;8.83;;;5.13;;
72771;SDS011;60894;42.544;1.516;2023-06-14T13:24:17;9.80;;;5.15;;
72771;SDS011;60894;42.544;1.516;2023-06-14T13:26:44;9.88;;;5.18;;
72771;SDS011;60894;42.544;1.516;2023-06-14T13:29:11;8.98;;;5.15;;
72771;SDS011;60894;42.544;1.516;2023-06-14T13:31:38;9.98;;;5.10;;
72771;SDS011;60894;42.544;1.516;2023-06-14T13:34:06;11.13;;;5.00;;
72771;SDS011;60894;42.544;1.516;2023-06-14T13:36:33;10.00;;;4.80;;
72771;SDS011;60894;42.544;1.516;2023-06-14T13:39:00;9.35;;;4.50;;
72771;SDS011;60894;42.544;1.516;2023-06-14T13:41:28;8.60;;;4.43;;
72771;SDS011;60894;42.544;1.516;2023-06-14T13:43:57;8.88;;;4.40;;
72771;SDS011;60894;42.544;1.516;2023-06-14T13:46:25;9.73;;;4.60;;
72771;SDS011;60894;42.544;1.516;2023-06-14T13:48:52;10.30;;;5.03;;
72771;SDS011;60894;42.544;1.516;2023-06-14T13:51:20;9.98;;;4.72;;
72771;SDS011;60894;42.544;1.516;2023-06-14T13:53:48;10.30;;;4.35;;
72771;SDS011;60894;42.544;1.516;2023-06-14T13:56:16;9.30;;;4.50;;
72771;SDS011;60894;42.544;1.516;2023-06-14T13:58:44;9.77;;;4.30;;
72771;SDS011;60894;42.544;1.516;2023-06-14T14:01:11;9.98;;;4.95;;
72771;SDS011;60894;42.544;1.516;2023-06-14T14:03:38;9.88;;;5.18;;
72771;SDS011;60894;42.544;1.516;2023-06-14T14:06:05;11.90;;;5.30;;
72771;SDS011;60894;42.544;1.516;2023-06-14T14:08:34;12.07;;;5.40;;
72771;SDS011;60894;42.544;1.516;2023-06-14T14:11:02;11.60;;;5.03;;
72771;SDS011;60894;42.544;1.516;2023-06-14T14:13:30;10.60;;;5.60;;
72771;SDS011;60894;42.544;1.516;2023-06-14T14:15:57;15.35;;;6.00;;
72771;SDS011;60894;42.544;1.516;2023-06-14T14:18:24;11.25;;;5.97;;
72771;SDS011;60894;42.544;1.516;2023-06-14T14:20:51;9.23;;;4.90;;
72771;SDS011;60894;42.544;1.516;2023-06-14T14:23:18;9.93;;;5.63;;
72771;SDS011;60894;42.544;1.516;2023-06-14T14:25:47;9.85;;;5.05;;
72771;SDS011;60894;42.544;1.516;2023-06-14T14:28:14;9.95;;;5.20;;
72771;SDS011;60894;42.544;1.516;2023-06-14T14:30:43;10.30;;;5.60;;
72771;SDS011;60894;42.544;1.516;2023-06-14T14:33:12;9.60;;;5.32;;
72771;SDS011;60894;42.544;1.516;2023-06-14T14:35:41;10.40;;;5.30;;
72771;SDS011;60894;42.544;1.516;2023-06-14T14:38:08;10.18;;;5.30;;
72771;SDS011;60894;42.544;1.516;2023-06-14T14:40:35;8.55;;;5.10;;
72771;SDS011;60894;42.544;1.516;2023-06-14T14:43:04;9.93;;;5.22;;
72771;SDS011;60894;42.544;1.516;2023-06-14T14:45:31;10.05;;;4.80;;
72771;SDS011;60894;42.544;1.516;2023-06-14T14:47:58;9.50;;;4.90;;
72771;SDS011;60894;42.544;1.516;2023-06-14T14:50:26;9.02;;;4.80;;
72771;SDS011;60894;42.544;1.516;2023-06-14T14:52:53;9.15;;;5.07;;